createdAt,value
2018-01-14T00:00:10.755Z,90.50
2018-01-14T00:02:38.280Z,90.30
2018-01-14T00:05:05.789Z,90.30
2018-01-14T00:07:33.438Z,90.30
2018-01-14T00:10:01.053Z,90.30
2018-01-14T00:12:29.097Z,90.10
2018-01-14T00:14:56.658Z,90.20
2018-01-14T00:17:24.142Z,90.00
2018-01-14T00:19:51.763Z,89.90
2018-01-14T00:22:19.222Z,89.90
2018-01-14T00:24:47.594Z,90.00
2018-01-14T00:27:18.478Z,90.00
2018-01-14T00:29:46.253Z,89.20
2018-01-14T00:32:13.705Z,89.60
2018-01-14T00:34:42.117Z,89.80
2018-01-14T00:37:09.963Z,89.70
2018-01-14T00:39:37.490Z,89.70
2018-01-14T00:42:05.057Z,89.50
2018-01-14T00:44:32.756Z,89.80
2018-01-14T00:47:00.627Z,89.90
2018-01-14T00:49:28.514Z,89.70
2018-01-14T00:51:56.234Z,89.90
2018-01-14T00:54:24.346Z,90.00
2018-01-14T00:56:51.916Z,90.10
2018-01-14T00:59:19.542Z,89.50
2018-01-14T01:01:47.213Z,89.50
2018-01-14T01:04:14.947Z,89.90
2018-01-14T01:06:42.451Z,90.00
2018-01-14T01:09:10.105Z,89.70
2018-01-14T01:11:38.386Z,89.90
2018-01-14T01:14:05.950Z,89.80
2018-01-14T01:16:33.439Z,90.00
2018-01-14T01:19:00.919Z,90.00
2018-01-14T01:21:28.527Z,90.10
2018-01-14T01:23:56.061Z,90.40
2018-01-14T01:26:23.561Z,90.40
2018-01-14T01:28:51.038Z,90.40
2018-01-14T01:31:18.581Z,90.30
2018-01-14T01:33:46.046Z,90.40
2018-01-14T01:36:14.289Z,90.60
2018-01-14T01:38:41.770Z,90.60
2018-01-14T01:41:09.246Z,90.40
2018-01-14T01:43:36.766Z,90.30
2018-01-14T01:46:04.901Z,90.40
2018-01-14T01:48:32.439Z,90.20
2018-01-14T01:50:59.946Z,90.10
2018-01-14T01:53:27.539Z,90.30
2018-01-14T01:55:55.022Z,90.40
2018-01-14T01:58:22.627Z,90.60
2018-01-14T02:00:50.111Z,90.60
2018-01-14T02:03:17.610Z,90.50
2018-01-14T02:05:45.271Z,90.40
2018-01-14T02:08:12.790Z,90.10
2018-01-14T02:10:40.434Z,89.80
2018-01-14T02:13:07.952Z,90.00
2018-01-14T02:15:35.522Z,89.80
2018-01-14T02:18:03.033Z,90.00
2018-01-14T02:20:30.587Z,89.70
2018-01-14T02:22:58.890Z,89.50
2018-01-14T02:25:26.370Z,89.40
2018-01-14T02:27:54.380Z,89.00
2018-01-14T02:30:21.855Z,89.00
2018-01-14T02:32:49.418Z,89.00
2018-01-14T02:35:17.683Z,88.50
2018-01-14T02:37:45.473Z,88.80
2018-01-14T02:40:13.039Z,88.90
2018-01-14T02:42:40.815Z,88.90
2018-01-14T02:45:08.460Z,88.60
2018-01-14T02:47:37.613Z,89.20
2018-01-14T02:50:05.230Z,89.10
2018-01-14T02:52:32.804Z,88.70
2018-01-14T02:55:00.535Z,88.50
2018-01-14T02:57:28.605Z,88.60
2018-01-14T02:59:56.125Z,88.50
2018-01-14T03:02:23.712Z,88.50
2018-01-14T03:04:51.275Z,88.00
2018-01-14T03:07:18.802Z,88.40
2018-01-14T03:09:46.295Z,88.20
2018-01-14T03:12:13.834Z,88.20
2018-01-14T03:14:41.362Z,88.60
2018-01-14T03:17:09.072Z,89.20
2018-01-14T03:19:36.604Z,89.20
2018-01-14T03:22:04.117Z,89.30
2018-01-14T03:24:31.796Z,89.60
2018-01-14T03:26:59.430Z,89.30
2018-01-14T03:29:27.080Z,89.40
2018-01-14T03:31:56.157Z,89.40
2018-01-14T03:34:23.898Z,89.40
2018-01-14T03:36:51.420Z,89.50
2018-01-14T03:39:19.008Z,89.80
2018-01-14T03:41:46.562Z,89.20
2018-01-14T03:44:20.330Z,89.60
2018-01-14T03:46:47.962Z,89.30
2018-01-14T03:49:15.534Z,89.90
2018-01-14T03:51:43.168Z,89.80
2018-01-14T03:54:10.852Z,89.70
2018-01-14T03:56:38.392Z,89.60
2018-01-14T03:59:06.009Z,89.80
2018-01-14T04:01:34.311Z,89.90
2018-01-14T04:04:01.906Z,89.80
2018-01-14T04:06:29.454Z,89.60
2018-01-14T04:08:57.019Z,89.30
2018-01-14T04:11:24.690Z,89.20
2018-01-14T04:13:52.238Z,88.70
2018-01-14T04:16:20.079Z,88.70
2018-01-14T04:18:47.728Z,89.10
2018-01-14T04:21:15.292Z,89.50
2018-01-14T04:23:42.982Z,89.20
2018-01-14T04:26:10.546Z,89.20
2018-01-14T04:28:38.872Z,89.00
2018-01-14T04:31:06.989Z,88.90
2018-01-14T04:33:34.810Z,89.00
2018-01-14T04:36:02.688Z,89.20
2018-01-14T04:38:30.285Z,89.20
2018-01-14T04:40:57.887Z,89.70
2018-01-14T04:43:25.566Z,88.80
2018-01-14T04:45:53.192Z,89.90
2018-01-14T04:48:20.704Z,89.90
2018-01-14T04:50:48.298Z,88.80
2018-01-14T04:53:15.866Z,88.80
2018-01-14T04:55:43.408Z,88.80
2018-01-14T04:58:10.891Z,89.00
2018-01-14T05:00:38.402Z,89.40
2018-01-14T05:03:06.942Z,89.00
2018-01-14T05:05:34.510Z,89.00
2018-01-14T05:08:02.013Z,88.80
2018-01-14T05:10:29.931Z,89.10
2018-01-14T05:12:57.556Z,88.80
2018-01-14T05:15:25.150Z,88.50
2018-01-14T05:17:52.755Z,88.60
2018-01-14T05:20:20.282Z,88.50
2018-01-14T05:22:47.792Z,88.80
2018-01-14T05:25:15.313Z,88.40
2018-01-14T05:27:42.794Z,88.60
2018-01-14T05:30:10.355Z,88.00
2018-01-14T05:32:37.878Z,87.90
2018-01-14T05:35:05.376Z,87.40
2018-01-14T05:37:33.609Z,87.00
2018-01-14T05:40:01.160Z,87.00
2018-01-14T05:42:28.681Z,86.80
2018-01-14T05:44:56.169Z,86.90
2018-01-14T05:47:23.707Z,87.30
2018-01-14T05:49:51.307Z,87.70
2018-01-14T05:52:18.841Z,87.40
2018-01-14T05:54:46.354Z,87.50
2018-01-14T05:57:13.856Z,87.20
2018-01-14T05:59:41.350Z,87.10
2018-01-14T06:02:08.996Z,86.90
2018-01-14T06:04:36.637Z,87.30
2018-01-14T06:07:04.222Z,87.20
2018-01-14T06:09:31.874Z,87.40
2018-01-14T06:11:59.439Z,88.40
2018-01-14T06:14:27.040Z,87.80
2018-01-14T06:16:54.639Z,87.80
2018-01-14T06:19:22.189Z,87.80
2018-01-14T06:21:49.758Z,87.90
2018-01-14T06:24:17.259Z,88.10
2018-01-14T06:26:44.790Z,88.30
2018-01-14T06:29:12.272Z,88.70
2018-01-14T06:31:39.769Z,89.30
2018-01-14T06:34:07.262Z,89.70
2018-01-14T06:36:34.776Z,90.00
2018-01-14T06:39:02.284Z,90.30
2018-01-14T06:41:29.785Z,90.40
2018-01-14T06:43:57.280Z,90.70
2018-01-14T06:46:24.823Z,90.90
2018-01-14T06:48:52.361Z,91.20
2018-01-14T06:51:20.294Z,91.40
2018-01-14T06:53:47.995Z,91.60
2018-01-14T06:56:15.635Z,91.80
2018-01-14T06:58:43.200Z,91.90
2018-01-14T07:01:11.557Z,92.30
2018-01-14T07:03:39.175Z,92.20
2018-01-14T07:06:06.752Z,92.40
2018-01-14T07:08:34.395Z,92.50
2018-01-14T07:11:01.957Z,92.60
2018-01-14T07:13:30.322Z,92.80
2018-01-14T07:15:57.842Z,92.70
2018-01-14T07:18:25.354Z,93.00
2018-01-14T07:20:52.875Z,93.10
2018-01-14T07:23:20.385Z,93.60
2018-01-14T07:25:48.049Z,93.40
2018-01-14T07:28:15.721Z,93.40
2018-01-14T07:30:44.761Z,93.80
2018-01-14T07:33:12.297Z,93.80
2018-01-14T07:35:40.970Z,94.10
2018-01-14T07:38:09.331Z,94.20
2018-01-14T07:40:36.894Z,94.10
2018-01-14T07:43:04.497Z,94.30
2018-01-14T07:45:32.154Z,94.50
2018-01-14T07:47:59.933Z,94.60
2018-01-14T07:50:27.558Z,94.60
2018-01-14T07:52:55.138Z,94.70
2018-01-14T07:55:23.632Z,95.00
2018-01-14T07:57:51.290Z,94.90
2018-01-14T08:00:18.837Z,94.90
2018-01-14T08:02:46.394Z,95.10
2018-01-14T08:05:13.961Z,95.10
2018-01-14T08:07:42.040Z,95.20
2018-01-14T08:10:09.692Z,95.30
2018-01-14T08:12:37.322Z,95.30
2018-01-14T08:15:06.996Z,95.30
2018-01-14T08:17:35.510Z,95.40
2018-01-14T08:20:02.996Z,95.60
2018-01-14T08:22:31.225Z,95.20
2018-01-14T08:24:58.697Z,95.20
2018-01-14T08:27:26.193Z,95.30
2018-01-14T08:29:53.673Z,95.30
2018-01-14T08:32:21.150Z,95.30
2018-01-14T08:34:48.606Z,95.40
2018-01-14T08:37:16.056Z,95.50
2018-01-14T08:39:43.504Z,95.60
2018-01-14T08:42:10.994Z,95.60
2018-01-14T08:44:38.453Z,95.50
2018-01-14T08:47:05.921Z,95.40
2018-01-14T08:49:33.378Z,95.40
2018-01-14T08:52:00.850Z,95.50
2018-01-14T08:54:28.317Z,95.60
2018-01-14T08:56:55.781Z,95.60
2018-01-14T08:59:23.235Z,95.50
2018-01-14T09:01:50.750Z,95.40
2018-01-14T09:04:18.205Z,95.50
2018-01-14T09:06:45.657Z,95.40
2018-01-14T09:09:13.125Z,95.30
2018-01-14T09:11:40.598Z,95.40
2018-01-14T09:14:08.825Z,95.00
2018-01-14T09:16:36.331Z,95.00
2018-01-14T09:19:03.839Z,95.20
2018-01-14T09:21:31.257Z,95.10
2018-01-14T09:23:58.704Z,95.10
2018-01-14T09:26:26.937Z,95.00
2018-01-14T09:28:54.386Z,95.00
2018-01-14T09:31:21.842Z,94.80
2018-01-14T09:33:49.301Z,94.90
2018-01-14T09:36:16.764Z,95.40
2018-01-14T09:38:44.217Z,95.20
2018-01-14T09:41:11.827Z,94.90
2018-01-14T09:43:39.279Z,94.80
2018-01-14T09:46:07.505Z,94.60
2018-01-14T09:48:34.960Z,94.60
2018-01-14T09:51:02.415Z,94.60
2018-01-14T09:53:29.920Z,94.70
2018-01-14T09:55:57.401Z,94.50
2018-01-14T09:58:24.862Z,94.60
2018-01-14T10:00:52.314Z,94.30
2018-01-14T10:03:19.775Z,94.10
2018-01-14T10:05:47.233Z,94.10
2018-01-14T10:08:14.768Z,93.80
2018-01-14T10:10:42.225Z,94.00
2018-01-14T10:13:09.667Z,93.90
2018-01-14T10:15:37.130Z,94.00
2018-01-14T10:18:04.599Z,93.90
2018-01-14T10:20:32.822Z,93.80
2018-01-14T10:23:00.418Z,93.70
2018-01-14T10:25:28.668Z,93.80
2018-01-14T10:27:56.195Z,93.70
2018-01-14T10:30:23.674Z,93.70
2018-01-14T10:32:51.139Z,93.80
2018-01-14T10:35:18.603Z,94.00
2018-01-14T10:37:46.067Z,93.90
2018-01-14T10:40:13.552Z,93.90
2018-01-14T10:42:41.405Z,93.80
2018-01-14T10:45:09.029Z,93.70
2018-01-14T10:47:36.525Z,93.80
2018-01-14T10:50:04.009Z,93.80
2018-01-14T10:52:31.461Z,93.60
2018-01-14T10:54:59.683Z,93.70
2018-01-14T10:57:27.128Z,93.70
2018-01-14T10:59:54.587Z,93.70
2018-01-14T11:02:22.221Z,93.70
2018-01-14T11:04:49.695Z,93.60
2018-01-14T11:07:17.163Z,93.70
2018-01-14T11:09:44.619Z,93.80
2018-01-14T11:12:12.073Z,93.90
2018-01-14T11:14:39.549Z,93.70
2018-01-14T11:17:06.997Z,93.70
2018-01-14T11:19:34.486Z,93.50
2018-01-14T11:22:01.929Z,93.50
2018-01-14T11:24:29.375Z,93.50
2018-01-14T11:26:56.845Z,93.50
2018-01-14T11:29:36.148Z,93.70
2018-01-14T11:32:03.669Z,93.60
2018-01-14T11:34:31.142Z,93.60
2018-01-14T11:36:58.597Z,93.70
2018-01-14T11:39:26.052Z,93.70
2018-01-14T11:41:53.538Z,93.60
2018-01-14T11:44:21.001Z,93.50
2018-01-14T11:46:48.447Z,93.60
2018-01-14T11:49:15.906Z,93.30
2018-01-14T11:51:43.562Z,93.40
2018-01-14T11:54:11.037Z,93.40
2018-01-14T11:56:38.509Z,93.40
2018-01-14T11:59:05.981Z,93.50
2018-01-14T12:01:33.437Z,93.50
2018-01-14T12:04:00.885Z,93.40
2018-01-14T12:06:28.370Z,93.40
2018-01-14T12:08:55.823Z,93.40
2018-01-14T12:11:24.048Z,93.30
2018-01-14T12:13:51.555Z,93.30
2018-01-14T12:16:18.989Z,93.30
2018-01-14T12:18:46.438Z,93.60
2018-01-14T12:21:13.908Z,93.30
2018-01-14T12:23:41.375Z,93.30
2018-01-14T12:26:08.822Z,93.30
2018-01-14T12:28:36.297Z,93.30
2018-01-14T12:31:04.566Z,93.20
2018-01-14T12:33:43.821Z,93.20
2018-01-14T12:36:11.269Z,93.50
2018-01-14T12:38:38.725Z,93.20
2018-01-14T12:41:06.967Z,93.30
2018-01-14T12:43:34.644Z,93.20
2018-01-14T12:46:02.117Z,93.20
2018-01-14T12:48:30.345Z,93.00
2018-01-14T12:50:57.857Z,93.00
2018-01-14T12:53:26.281Z,93.00
2018-01-14T12:55:53.732Z,93.10
2018-01-14T12:58:21.203Z,92.90
2018-01-14T13:00:48.678Z,92.90
2018-01-14T13:03:16.166Z,93.10
2018-01-14T13:05:43.613Z,93.30
2018-01-14T13:08:11.857Z,93.20
2018-01-14T13:10:39.338Z,93.20
2018-01-14T13:13:06.797Z,93.20
2018-01-14T13:15:35.018Z,93.30
2018-01-14T13:18:02.493Z,93.20
2018-01-14T13:20:29.959Z,93.20
2018-01-14T13:22:57.418Z,93.10
2018-01-14T13:25:24.924Z,93.30
2018-01-14T13:27:52.386Z,93.30
2018-01-14T13:30:19.825Z,93.30
2018-01-14T13:32:47.280Z,93.30
2018-01-14T13:35:14.779Z,93.30
2018-01-14T13:37:42.241Z,93.40
2018-01-14T13:40:09.689Z,93.50
2018-01-14T13:42:37.149Z,93.50
2018-01-14T13:45:04.644Z,93.60
2018-01-14T13:47:32.376Z,93.60
2018-01-14T13:49:59.822Z,93.60
2018-01-14T13:52:27.580Z,93.70
2018-01-14T13:54:55.318Z,93.60
2018-01-14T13:57:22.845Z,93.80
2018-01-14T13:59:50.621Z,93.80
2018-01-14T14:02:19.159Z,93.70
2018-01-14T14:04:46.625Z,93.90
2018-01-14T14:07:14.108Z,93.70
2018-01-14T14:09:41.576Z,93.80
2018-01-14T14:12:14.730Z,93.80
2018-01-14T14:14:42.237Z,93.80
2018-01-14T14:17:10.453Z,94.00
2018-01-14T14:19:37.913Z,93.90
2018-01-14T14:22:05.411Z,94.00
2018-01-14T14:24:32.943Z,94.00
2018-01-14T14:27:00.414Z,94.10
2018-01-14T14:29:27.899Z,94.10
2018-01-14T14:31:55.353Z,94.20
2018-01-14T14:34:22.881Z,94.20
2018-01-14T14:36:50.348Z,94.20
2018-01-14T14:39:17.810Z,94.20
2018-01-14T14:41:46.038Z,94.30
2018-01-14T14:44:13.518Z,94.30
2018-01-14T14:46:40.992Z,94.50
2018-01-14T14:49:08.489Z,94.50
2018-01-14T14:51:35.970Z,94.50
2018-01-14T14:54:03.615Z,94.60
2018-01-14T14:56:31.095Z,94.70
2018-01-14T14:58:58.562Z,94.70
2018-01-14T15:01:26.025Z,94.70
2018-01-14T15:03:53.506Z,94.90
2018-01-14T15:06:20.996Z,94.90
2018-01-14T15:08:48.522Z,94.90
2018-01-14T15:11:15.997Z,95.10
2018-01-14T15:13:43.498Z,95.00
2018-01-14T15:16:10.946Z,95.00
2018-01-14T15:18:38.406Z,95.10
2018-01-14T15:21:05.934Z,95.10
2018-01-14T15:23:33.386Z,95.20
2018-01-14T15:26:00.833Z,95.20
2018-01-14T15:28:28.345Z,95.20
2018-01-14T15:30:55.806Z,95.30
2018-01-14T15:33:23.244Z,95.40
2018-01-14T15:35:50.713Z,95.50
2018-01-14T15:38:18.205Z,95.40
2018-01-14T15:40:45.665Z,95.50
2018-01-14T15:43:13.114Z,95.40
2018-01-14T15:45:40.582Z,95.50
2018-01-14T15:48:08.025Z,95.60
2018-01-14T15:50:35.490Z,95.50
2018-01-14T15:53:02.957Z,95.70
2018-01-14T15:55:30.417Z,95.70
2018-01-14T15:57:57.869Z,95.70
2018-01-14T16:00:25.343Z,95.80
2018-01-14T16:02:52.826Z,96.10
2018-01-14T16:05:20.288Z,95.50
2018-01-14T16:07:47.759Z,95.70
2018-01-14T16:10:15.215Z,95.60
2018-01-14T16:12:42.669Z,95.60
2018-01-14T16:15:10.173Z,95.70
2018-01-14T16:17:37.598Z,95.80
2018-01-14T16:20:05.051Z,95.90
2018-01-14T16:22:32.532Z,95.90
2018-01-14T16:25:00.765Z,96.10
2018-01-14T16:27:28.226Z,96.10
2018-01-14T16:29:55.685Z,96.10
2018-01-14T16:32:23.181Z,96.00
2018-01-14T16:34:50.632Z,96.10
2018-01-14T16:37:18.914Z,96.30
2018-01-14T16:39:47.460Z,96.40
2018-01-14T16:42:14.930Z,96.40
2018-01-14T16:44:42.401Z,96.30
2018-01-14T16:47:09.885Z,96.40
2018-01-14T16:49:37.369Z,96.40
2018-01-14T16:52:04.850Z,96.40
2018-01-14T16:54:32.309Z,96.40
2018-01-14T16:56:59.777Z,96.40
2018-01-14T16:59:27.233Z,96.40
2018-01-14T17:01:54.753Z,96.40
2018-01-14T17:04:23.014Z,96.30
2018-01-14T17:06:50.485Z,96.30
2018-01-14T17:09:17.953Z,96.40
2018-01-14T17:11:45.406Z,96.50
2018-01-14T17:14:12.877Z,96.50
2018-01-14T17:16:40.343Z,96.50
2018-01-14T17:19:08.037Z,96.50
2018-01-14T17:21:35.500Z,96.50
2018-01-14T17:24:03.781Z,96.50
2018-01-14T17:26:31.319Z,96.50
2018-01-14T17:28:59.065Z,96.60
2018-01-14T17:31:28.191Z,96.50
2018-01-14T17:33:56.507Z,96.40
2018-01-14T17:36:24.481Z,96.40
2018-01-14T17:38:51.994Z,96.40
2018-01-14T17:41:20.470Z,96.60
2018-01-14T17:43:47.939Z,96.60
2018-01-14T17:46:15.537Z,96.60
2018-01-14T17:48:43.030Z,96.70
2018-01-14T17:51:10.632Z,96.70
2018-01-14T17:53:38.928Z,96.80
2018-01-14T17:56:06.401Z,96.80
2018-01-14T17:58:33.869Z,96.70
2018-01-14T18:01:01.348Z,96.90
2018-01-14T18:03:28.815Z,96.80
2018-01-14T18:05:56.277Z,96.90
2018-01-14T18:08:23.737Z,96.90
2018-01-14T18:10:52.118Z,97.00
2018-01-14T18:13:20.343Z,97.00
2018-01-14T18:15:47.814Z,96.90
2018-01-14T18:18:15.382Z,97.00
2018-01-14T18:20:43.635Z,97.20
2018-01-14T18:23:11.126Z,97.10
2018-01-14T18:25:38.606Z,97.10
2018-01-14T18:28:06.066Z,97.10
2018-01-14T18:30:33.542Z,97.10
2018-01-14T18:33:01.014Z,97.10
2018-01-14T18:35:28.527Z,97.20
2018-01-14T18:37:56.734Z,97.20
2018-01-14T18:40:24.201Z,97.20
2018-01-14T18:42:51.673Z,97.20
2018-01-14T18:45:19.150Z,97.10
2018-01-14T18:47:46.842Z,97.30
2018-01-14T18:50:14.478Z,97.40
2018-01-14T18:52:41.949Z,97.30
2018-01-14T18:55:09.425Z,97.30
2018-01-14T18:57:36.963Z,97.30
2018-01-14T19:00:04.583Z,97.10
2018-01-14T19:02:35.346Z,97.20
2018-01-14T19:05:03.309Z,97.30
2018-01-14T19:10:15.203Z,97.30
2018-01-14T19:12:45.793Z,97.40
2018-01-14T19:15:14.937Z,97.40
2018-01-14T19:17:45.395Z,97.50
2018-01-14T19:20:14.193Z,97.50
2018-01-14T19:22:42.158Z,97.50
2018-01-14T19:25:20.148Z,97.50
2018-01-14T19:27:52.521Z,97.60
2018-01-14T19:30:20.924Z,97.70
2018-01-14T19:32:49.259Z,97.80
2018-01-14T19:35:16.919Z,97.70
2018-01-14T19:37:56.720Z,97.80
2018-01-14T19:40:28.926Z,97.70
2018-01-14T19:42:57.183Z,97.80
2018-01-14T19:45:26.637Z,97.70
2018-01-14T19:47:54.884Z,97.70
2018-01-14T19:50:31.203Z,97.80
2018-01-14T19:52:58.787Z,97.80
2018-01-14T19:55:27.273Z,97.80
2018-01-14T19:57:55.808Z,97.80
2018-01-14T20:00:29.420Z,97.80
2018-01-14T20:02:57.042Z,97.90
2018-01-14T20:05:25.804Z,97.90
2018-01-14T20:07:53.399Z,97.90
2018-01-14T20:10:23.587Z,98.00
2018-01-14T20:12:51.379Z,98.00
2018-01-14T20:15:22.067Z,98.00
2018-01-14T20:17:49.772Z,98.00
2018-01-14T20:20:18.219Z,98.10
2018-01-14T20:22:46.069Z,98.00
2018-01-14T20:25:13.646Z,98.10
2018-01-14T20:27:43.770Z,98.10
2018-01-14T20:30:25.187Z,98.30
2018-01-14T20:32:53.776Z,98.30
2018-01-14T20:35:23.422Z,98.30
2018-01-14T20:37:52.261Z,98.30
2018-01-14T20:40:21.900Z,98.20
2018-01-14T20:42:50.903Z,98.30
2018-01-14T20:45:18.989Z,98.40
2018-01-14T20:47:46.582Z,98.40
2018-01-14T20:50:15.135Z,98.30
2018-01-14T20:52:43.727Z,98.50
2018-01-14T20:55:11.369Z,98.40
2018-01-14T20:57:39.044Z,98.40
2018-01-14T21:00:06.782Z,98.40
2018-01-14T21:02:34.276Z,98.40
2018-01-14T21:05:01.981Z,98.40
2018-01-14T21:07:29.738Z,98.40
2018-01-14T21:09:57.225Z,98.40
2018-01-14T21:12:24.743Z,98.50
2018-01-14T21:14:52.207Z,98.50
2018-01-14T21:17:19.767Z,98.60
2018-01-14T21:19:47.352Z,98.50
2018-01-14T21:22:15.203Z,98.40
2018-01-14T21:24:42.748Z,98.50
2018-01-14T21:27:11.042Z,98.50
2018-01-14T21:29:38.567Z,98.50
2018-01-14T21:32:06.406Z,98.90
2018-01-14T21:34:34.199Z,98.80
2018-01-14T21:37:01.765Z,98.80
2018-01-14T21:39:29.585Z,98.80
2018-01-14T21:41:57.123Z,98.80
2018-01-14T21:44:24.677Z,98.80
2018-01-14T21:46:52.190Z,98.70
2018-01-14T21:49:19.703Z,98.60
2018-01-14T21:51:47.234Z,98.60
2018-01-14T21:54:17.398Z,98.60
2018-01-14T21:56:50.114Z,98.60
2018-01-14T21:59:17.642Z,98.50
2018-01-14T22:01:45.120Z,98.50
2018-01-14T22:04:12.648Z,98.50
2018-01-14T22:06:40.159Z,98.50
2018-01-14T22:09:09.653Z,98.60
2018-01-14T22:11:37.223Z,98.60
2018-01-14T22:14:04.702Z,98.70
2018-01-14T22:16:35.696Z,98.70
2018-01-14T22:19:03.438Z,98.70
2018-01-14T22:21:31.202Z,98.80
2018-01-14T22:23:58.829Z,98.80
2018-01-14T22:26:26.490Z,98.80
2018-01-14T22:28:54.799Z,98.70
2018-01-14T22:31:22.321Z,98.70
2018-01-14T22:33:49.861Z,98.70
2018-01-14T22:36:17.487Z,98.70
2018-01-14T22:38:45.058Z,98.60
2018-01-14T22:41:12.927Z,98.70
2018-01-14T22:43:40.498Z,98.80
2018-01-14T22:46:10.269Z,98.90
2018-01-14T22:48:37.914Z,98.80
2018-01-14T22:51:05.599Z,98.80
2018-01-14T22:53:33.242Z,98.90
2018-01-14T22:56:00.786Z,99.00
2018-01-14T22:58:28.498Z,99.00
2018-01-14T23:00:56.086Z,99.00
2018-01-14T23:03:23.882Z,99.00
2018-01-14T23:05:51.677Z,99.10
2018-01-14T23:08:19.368Z,99.00
2018-01-14T23:10:47.037Z,98.90
2018-01-14T23:13:14.571Z,99.00
2018-01-14T23:15:42.114Z,98.90
2018-01-14T23:18:09.677Z,99.00
2018-01-14T23:20:37.250Z,99.00
2018-01-14T23:23:04.815Z,99.00
2018-01-14T23:25:33.302Z,99.10
2018-01-14T23:28:01.668Z,99.00
2018-01-14T23:30:29.260Z,99.00
2018-01-14T23:32:57.685Z,99.10
2018-01-14T23:35:25.204Z,99.00
2018-01-14T23:37:52.830Z,99.10
2018-01-14T23:40:20.442Z,99.10
2018-01-14T23:42:48.076Z,99.20
2018-01-14T23:45:16.416Z,99.30
2018-01-14T23:47:43.896Z,99.20
2018-01-14T23:50:11.446Z,99.20
2018-01-14T23:52:39.042Z,99.10
2018-01-14T23:55:06.559Z,99.10
2018-01-14T23:57:34.130Z,99.20
